createdAt,value
2016-08-08T00:00:33.711Z,1015.65
2016-08-08T00:01:33.707Z,1015.66
2016-08-08T00:02:33.705Z,1015.63
2016-08-08T00:03:33.704Z,1015.64
2016-08-08T00:04:33.699Z,1015.62
2016-08-08T00:05:33.698Z,1015.6
2016-08-08T00:06:33.695Z,1015.63
2016-08-08T00:07:33.694Z,1015.62
2016-08-08T00:08:33.696Z,1015.6
2016-08-08T00:09:33.688Z,1015.58
2016-08-08T00:10:33.696Z,1015.56
2016-08-08T00:12:33.682Z,1015.52
2016-08-08T00:13:33.679Z,1015.51
2016-08-08T00:14:33.678Z,1015.52
2016-08-08T00:15:33.673Z,1015.51
2016-08-08T00:16:33.673Z,1015.51
2016-08-08T00:17:33.670Z,1015.46
2016-08-08T00:18:33.670Z,1015.47
2016-08-08T00:19:33.672Z,1015.53
2016-08-08T00:20:33.661Z,1015.52
2016-08-08T00:21:33.660Z,1015.49
2016-08-08T00:22:33.660Z,1015.5
2016-08-08T00:23:33.655Z,1015.51
2016-08-08T00:24:33.652Z,1015.47
2016-08-08T00:25:33.652Z,1015.48
2016-08-08T00:26:33.647Z,1015.45
2016-08-08T00:27:33.645Z,1015.48
2016-08-08T00:28:33.645Z,1015.48
2016-08-08T00:29:33.642Z,1015.45
2016-08-08T00:30:33.639Z,1015.49
2016-08-08T00:31:33.635Z,1015.48
2016-08-08T00:32:33.632Z,1015.46
2016-08-08T00:33:33.632Z,1015.43
2016-08-08T00:34:33.629Z,1015.44
2016-08-08T00:35:33.632Z,1015.44
2016-08-08T00:36:33.624Z,1015.43
2016-08-08T00:37:33.622Z,1015.42
2016-08-08T00:38:33.620Z,1015.41
2016-08-08T00:39:33.619Z,1015.43
2016-08-08T00:40:33.667Z,1015.42
2016-08-08T00:41:33.614Z,1015.39
2016-08-08T00:42:34.010Z,1015.38
2016-08-08T00:43:33.607Z,1015.36
2016-08-08T00:44:33.603Z,1015.37
2016-08-08T00:45:33.601Z,1015.38
2016-08-08T00:46:33.599Z,1015.33
2016-08-08T00:47:33.598Z,1015.33
2016-08-08T00:48:33.594Z,1015.31
2016-08-08T00:49:33.593Z,1015.3
2016-08-08T00:50:33.590Z,1015.28
2016-08-08T00:51:33.589Z,1015.3
2016-08-08T00:52:33.593Z,1015.28
2016-08-08T00:53:33.583Z,1015.27
2016-08-08T00:54:33.583Z,1015.22
2016-08-08T00:55:33.580Z,1015.2
2016-08-08T00:56:33.573Z,1015.21
2016-08-08T00:57:33.572Z,1015.18
2016-08-08T00:58:33.568Z,1015.19
2016-08-08T00:59:33.566Z,1015.23
2016-08-08T01:00:33.940Z,1015.18
2016-08-08T01:01:33.572Z,1015.15
2016-08-08T01:02:34.860Z,1015.15
2016-08-08T01:03:33.557Z,1015.08
2016-08-08T01:04:33.553Z,1015.12
2016-08-08T01:05:33.552Z,1015.12
2016-08-08T01:06:33.548Z,1015.13
2016-08-08T01:07:33.552Z,1015.1
2016-08-08T01:08:33.543Z,1015.07
2016-08-08T01:09:33.539Z,1015.03
2016-08-08T01:10:34.008Z,1015.04
2016-08-08T01:11:33.535Z,1015.06
2016-08-08T01:12:34.105Z,1015.03
2016-08-08T01:13:33.529Z,1015.02
2016-08-08T01:14:33.524Z,1015.04
2016-08-08T01:15:33.522Z,1015.01
2016-08-08T01:16:33.522Z,1015.01
2016-08-08T01:17:33.516Z,1015.05
2016-08-08T01:18:33.513Z,1015.03
2016-08-08T01:19:33.513Z,1015.02
2016-08-08T01:20:33.508Z,1015
2016-08-08T01:21:33.507Z,1014.97
2016-08-08T01:22:33.502Z,1014.98
2016-08-08T01:23:33.501Z,1014.94
2016-08-08T01:24:33.496Z,1014.95
2016-08-08T01:25:33.495Z,1014.96
2016-08-08T01:26:33.493Z,1014.92
2016-08-08T01:27:33.489Z,1014.89
2016-08-08T01:28:33.486Z,1014.88
2016-08-08T01:29:33.481Z,1014.87
2016-08-08T01:30:33.481Z,1014.87
2016-08-08T01:31:33.478Z,1014.85
2016-08-08T01:32:33.472Z,1014.87
2016-08-08T01:33:33.471Z,1014.86
2016-08-08T01:34:33.468Z,1014.85
2016-08-08T01:35:33.466Z,1014.84
2016-08-08T01:36:33.460Z,1014.8
2016-08-08T01:37:33.459Z,1014.81
2016-08-08T01:38:33.458Z,1014.8
2016-08-08T01:39:33.460Z,1014.8
2016-08-08T01:40:33.451Z,1014.76
2016-08-08T01:41:33.446Z,1014.76
2016-08-08T01:42:33.446Z,1014.72
2016-08-08T01:43:33.441Z,1014.71
2016-08-08T01:44:33.439Z,1014.77
2016-08-08T01:45:33.435Z,1014.7
2016-08-08T01:46:33.432Z,1014.7
2016-08-08T01:47:33.429Z,1014.73
2016-08-08T01:48:33.428Z,1014.72
2016-08-08T01:49:33.424Z,1014.72
2016-08-08T01:50:33.420Z,1014.69
2016-08-08T01:51:33.424Z,1014.68
2016-08-08T01:52:33.415Z,1014.65
2016-08-08T01:53:33.416Z,1014.67
2016-08-08T01:54:33.408Z,1014.69
2016-08-08T01:55:33.406Z,1014.68
2016-08-08T01:56:33.405Z,1014.66
2016-08-08T01:57:33.400Z,1014.66
2016-08-08T01:58:33.399Z,1014.66
2016-08-08T01:59:33.396Z,1014.64
2016-08-08T02:00:33.393Z,1014.65
2016-08-08T02:01:33.389Z,1014.65
2016-08-08T02:02:33.384Z,1014.61
2016-08-08T02:03:33.588Z,1014.63
2016-08-08T02:04:33.380Z,1014.66
2016-08-08T02:05:33.377Z,1014.63
2016-08-08T02:06:33.376Z,1014.64
2016-08-08T02:07:34.372Z,1014.61
2016-08-08T02:08:33.670Z,1014.61
2016-08-08T02:09:33.367Z,1014.61
2016-08-08T02:10:33.364Z,1014.59
2016-08-08T02:11:33.363Z,1014.54
2016-08-08T02:12:33.810Z,1014.54
2016-08-08T02:13:33.357Z,1014.55
2016-08-08T02:14:33.351Z,1014.57
2016-08-08T02:15:33.349Z,1014.57
2016-08-08T02:16:33.346Z,1014.55
2016-08-08T02:17:33.343Z,1014.51
2016-08-08T02:18:33.343Z,1014.48
2016-08-08T02:19:33.897Z,1014.44
2016-08-08T02:20:33.456Z,1014.43
2016-08-08T02:21:34.757Z,1014.43
2016-08-08T02:22:33.332Z,1014.41
2016-08-08T02:23:33.327Z,1014.42
2016-08-08T02:24:33.757Z,1014.44
2016-08-08T02:25:33.322Z,1014.46
2016-08-08T02:26:33.318Z,1014.46
2016-08-08T02:27:33.314Z,1014.46
2016-08-08T02:28:33.313Z,1014.45
2016-08-08T02:29:33.310Z,1014.41
2016-08-08T02:30:33.363Z,1014.42
2016-08-08T02:31:33.306Z,1014.42
2016-08-08T02:32:33.300Z,1014.43
2016-08-08T02:33:33.632Z,1014.48
2016-08-08T02:34:33.298Z,1014.52
2016-08-08T02:35:33.292Z,1014.54
2016-08-08T02:36:33.289Z,1014.47
2016-08-08T02:37:33.288Z,1014.4
2016-08-08T02:38:33.283Z,1014.39
2016-08-08T02:39:33.281Z,1014.42
2016-08-08T02:40:33.276Z,1014.43
2016-08-08T02:41:33.273Z,1014.41
2016-08-08T02:42:33.270Z,1014.39
2016-08-08T02:43:33.267Z,1014.41
2016-08-08T02:44:33.271Z,1014.41
2016-08-08T02:45:33.263Z,1014.41
2016-08-08T02:46:33.261Z,1014.36
2016-08-08T02:47:33.258Z,1014.29
2016-08-08T02:48:33.255Z,1014.28
2016-08-08T02:49:33.252Z,1014.35
2016-08-08T02:50:33.245Z,1014.39
2016-08-08T02:51:33.245Z,1014.41
2016-08-08T02:52:33.242Z,1014.34
2016-08-08T02:53:33.236Z,1014.29
2016-08-08T02:54:33.234Z,1014.25
2016-08-08T02:55:33.235Z,1014.21
2016-08-08T02:56:33.228Z,1014.19
2016-08-08T02:57:33.227Z,1014.24
2016-08-08T02:58:33.225Z,1014.27
2016-08-08T02:59:33.223Z,1014.18
2016-08-08T03:00:33.216Z,1014.11
2016-08-08T03:01:33.214Z,1014.13
2016-08-08T03:02:33.211Z,1014.16
2016-08-08T03:03:33.208Z,1014.17
2016-08-08T03:04:33.205Z,1014.14
2016-08-08T03:05:33.203Z,1014.15
2016-08-08T03:06:33.202Z,1014.13
2016-08-08T03:07:33.198Z,1014.15
2016-08-08T03:08:33.196Z,1014.18
2016-08-08T03:09:33.190Z,1014.24
2016-08-08T03:10:33.190Z,1014.2
2016-08-08T03:11:33.185Z,1014.2
2016-08-08T03:12:33.182Z,1014.16
2016-08-08T03:13:33.181Z,1014.08
2016-08-08T03:14:33.176Z,1014.1
2016-08-08T03:15:33.173Z,1014.14
2016-08-08T03:16:33.223Z,1014.14
2016-08-08T03:18:33.163Z,1014.09
2016-08-08T03:19:33.161Z,1014.1
2016-08-08T03:20:33.160Z,1014.05
2016-08-08T03:21:33.158Z,1014.08
2016-08-08T03:22:33.155Z,1014.06
2016-08-08T03:23:33.156Z,1014.05
2016-08-08T03:24:33.150Z,1014.1
2016-08-08T03:25:33.145Z,1014.15
2016-08-08T03:26:33.142Z,1014.22
2016-08-08T03:27:33.138Z,1014.19
2016-08-08T03:28:33.144Z,1014.14
2016-08-08T03:29:33.137Z,1014.18
2016-08-08T03:30:33.129Z,1014.16
2016-08-08T03:31:33.125Z,1014.17
2016-08-08T03:32:33.126Z,1014.26
2016-08-08T03:33:33.121Z,1014.23
2016-08-08T03:34:33.119Z,1014.26
2016-08-08T03:35:33.117Z,1014.25
2016-08-08T03:36:33.111Z,1014.21
2016-08-08T03:37:33.109Z,1014.2
2016-08-08T03:38:33.105Z,1014.19
2016-08-08T03:39:33.781Z,1014.14
2016-08-08T03:40:33.100Z,1014.15
2016-08-08T03:41:33.099Z,1014.13
2016-08-08T03:42:33.093Z,1014.16
2016-08-08T03:43:33.093Z,1014.1
2016-08-08T03:44:33.092Z,1014.09
2016-08-08T03:45:33.085Z,1014.1
2016-08-08T03:46:34.035Z,1014.11
2016-08-08T03:47:34.939Z,1014.09
2016-08-08T03:48:33.076Z,1014.08
2016-08-08T03:49:33.075Z,1014.09
2016-08-08T03:50:33.071Z,1014.06
2016-08-08T03:51:33.070Z,1014.11
2016-08-08T03:52:33.066Z,1014.06
2016-08-08T03:53:33.061Z,1014.09
2016-08-08T03:54:33.060Z,1014.08
2016-08-08T03:55:33.061Z,1014.11
2016-08-08T03:56:33.053Z,1014.12
2016-08-08T03:57:33.052Z,1014.18
2016-08-08T03:58:33.049Z,1014.17
2016-08-08T03:59:33.043Z,1014.18
2016-08-08T04:00:33.043Z,1014.14
2016-08-08T04:01:33.040Z,1014.11
2016-08-08T04:02:33.037Z,1014.07
2016-08-08T04:03:33.032Z,1014.09
2016-08-08T04:04:33.028Z,1014.1
2016-08-08T04:05:33.027Z,1014.12
2016-08-08T04:06:33.023Z,1014.11
2016-08-08T04:07:33.021Z,1014.18
2016-08-08T04:08:33.020Z,1014.18
2016-08-08T04:09:33.014Z,1014.27
2016-08-08T04:10:33.013Z,1014.28
2016-08-08T04:11:33.009Z,1014.31
2016-08-08T04:12:33.006Z,1014.27
2016-08-08T04:13:33.003Z,1014.27
2016-08-08T04:14:33.003Z,1014.17
2016-08-08T04:15:33.002Z,1014.08
2016-08-08T04:16:32.999Z,1014.13
2016-08-08T04:17:32.993Z,1014.13
2016-08-08T04:18:32.991Z,1014.14
2016-08-08T04:19:32.990Z,1014.18
2016-08-08T04:20:32.987Z,1014.18
2016-08-08T04:21:32.983Z,1014.2
2016-08-08T04:22:32.981Z,1014.21
2016-08-08T04:23:32.981Z,1014.26
2016-08-08T04:24:32.977Z,1014.25
2016-08-08T04:25:32.975Z,1014.24
2016-08-08T04:26:32.974Z,1014.19
2016-08-08T04:28:32.973Z,1014.13
2016-08-08T04:29:32.970Z,1014.14
2016-08-08T04:30:32.970Z,1014.13
2016-08-08T04:31:32.969Z,1014.13
2016-08-08T04:32:32.968Z,1014.17
2016-08-08T04:33:32.970Z,1014.19
2016-08-08T04:34:32.968Z,1014.23
2016-08-08T04:35:33.770Z,1014.14
2016-08-08T04:36:32.974Z,1014.07
2016-08-08T04:37:32.969Z,1014.12
2016-08-08T04:38:32.971Z,1014.2
2016-08-08T04:39:32.976Z,1014.19
2016-08-08T04:40:32.972Z,1014.23
2016-08-08T04:41:32.971Z,1014.16
2016-08-08T04:43:32.973Z,1014.12
2016-08-08T04:44:32.975Z,1014.09
2016-08-08T04:45:32.976Z,1014.1
2016-08-08T04:46:32.978Z,1014.03
2016-08-08T04:47:32.980Z,1014.04
2016-08-08T04:48:32.981Z,1014.01
2016-08-08T04:49:33.435Z,1013.96
2016-08-08T04:50:32.986Z,1014.01
2016-08-08T04:51:32.988Z,1014.01
2016-08-08T04:52:32.990Z,1014.04
2016-08-08T04:53:32.990Z,1014.03
2016-08-08T04:54:32.993Z,1014
2016-08-08T04:55:33.435Z,1014.05
2016-08-08T04:56:32.996Z,1014.03
2016-08-08T04:58:32.999Z,1014.12
2016-08-08T04:59:33.905Z,1014.07
2016-08-08T05:00:33.003Z,1014.08
2016-08-08T05:01:33.004Z,1014.09
2016-08-08T05:02:33.008Z,1014.2
2016-08-08T05:03:33.008Z,1014.22
2016-08-08T05:04:33.012Z,1014.21
2016-08-08T05:05:33.015Z,1014.23
2016-08-08T05:06:33.016Z,1014.21
2016-08-08T05:07:33.017Z,1014.24
2016-08-08T05:08:33.495Z,1014.2
2016-08-08T05:09:33.022Z,1014.11
2016-08-08T05:10:33.025Z,1014.09
2016-08-08T05:11:33.029Z,1014.09
2016-08-08T05:13:33.036Z,1014.1
2016-08-08T05:14:33.038Z,1014.14
2016-08-08T05:15:33.044Z,1014.1
2016-08-08T05:16:33.047Z,1014.06
2016-08-08T05:17:33.050Z,1014.05
2016-08-08T05:18:33.056Z,1014.03
2016-08-08T05:19:33.061Z,1014.03
2016-08-08T05:20:33.066Z,1013.97
2016-08-08T05:21:33.070Z,1013.99
2016-08-08T05:22:33.076Z,1013.99
2016-08-08T05:23:33.080Z,1013.99
2016-08-08T05:24:33.086Z,1013.97
2016-08-08T05:25:33.095Z,1014.02
2016-08-08T05:26:33.097Z,1013.99
2016-08-08T05:28:33.112Z,1014.06
2016-08-08T05:29:33.117Z,1014.08
2016-08-08T05:30:33.126Z,1014.11
2016-08-08T05:31:33.136Z,1014.08
2016-08-08T05:32:33.142Z,1014.1
2016-08-08T05:33:33.147Z,1014.1
2016-08-08T05:34:33.157Z,1014.07
2016-08-08T05:35:33.167Z,1014.04
2016-08-08T05:36:33.173Z,1014.02
2016-08-08T05:37:33.185Z,1014.05
2016-08-08T05:38:33.191Z,1014.06
2016-08-08T05:39:33.200Z,1014.02
2016-08-08T05:40:33.209Z,1014.03
2016-08-08T05:41:33.217Z,1014.08
2016-08-08T05:42:33.227Z,1014.08
2016-08-08T05:43:33.240Z,1014.05
2016-08-08T05:44:33.248Z,1014.08
2016-08-08T05:45:33.256Z,1014.04
2016-08-08T05:46:33.268Z,1014.04
2016-08-08T05:47:33.289Z,1014.06
2016-08-08T05:48:33.287Z,1013.99
2016-08-08T05:49:33.300Z,1013.81
2016-08-08T05:50:33.309Z,1013.76
2016-08-08T05:51:33.319Z,1013.7
2016-08-08T05:52:33.330Z,1013.69
2016-08-08T05:53:33.844Z,1013.7
2016-08-08T05:54:33.352Z,1013.81
2016-08-08T05:55:33.514Z,1013.91
2016-08-08T05:56:33.379Z,1013.88
2016-08-08T05:57:33.383Z,1013.87
2016-08-08T05:58:33.394Z,1013.94
2016-08-08T05:59:33.403Z,1013.89
2016-08-08T06:00:33.417Z,1013.85
2016-08-08T06:01:33.426Z,1013.85
2016-08-08T06:02:33.434Z,1013.76
2016-08-08T06:03:33.443Z,1013.74
2016-08-08T06:04:33.454Z,1013.79
2016-08-08T06:05:33.866Z,1013.78
2016-08-08T06:06:33.473Z,1013.72
2016-08-08T06:07:33.482Z,1013.73
2016-08-08T06:08:33.494Z,1013.67
2016-08-08T06:09:33.501Z,1013.66
2016-08-08T06:10:33.513Z,1013.63
2016-08-08T06:11:33.522Z,1013.78
2016-08-08T06:12:33.530Z,1013.66
2016-08-08T06:13:33.542Z,1013.78
2016-08-08T06:14:33.552Z,1013.73
2016-08-08T06:15:33.557Z,1013.82
2016-08-08T06:16:33.566Z,1013.69
2016-08-08T06:17:33.586Z,1013.92
2016-08-08T06:18:33.831Z,1013.94
2016-08-08T06:19:33.595Z,1013.89
2016-08-08T06:20:33.605Z,1013.85
2016-08-08T06:21:33.612Z,1013.92
2016-08-08T06:22:33.658Z,1013.88
2016-08-08T06:23:33.635Z,1013.87
2016-08-08T06:24:33.642Z,1013.94
2016-08-08T06:25:33.655Z,1013.74
2016-08-08T06:26:34.313Z,1013.69
2016-08-08T06:27:33.717Z,1013.87
2016-08-08T06:28:33.686Z,1013.76
2016-08-08T06:29:33.694Z,1013.81
2016-08-08T06:30:33.710Z,1013.87
2016-08-08T06:31:33.720Z,1013.73
2016-08-08T06:32:33.728Z,1013.85
2016-08-08T06:33:33.740Z,1013.76
2016-08-08T06:34:33.749Z,1013.73
2016-08-08T06:35:33.759Z,1013.71
2016-08-08T06:36:33.769Z,1013.74
2016-08-08T06:37:33.784Z,1013.92
2016-08-08T06:38:33.794Z,1013.97
2016-08-08T06:39:33.802Z,1013.8
2016-08-08T06:40:33.815Z,1013.75
2016-08-08T06:41:33.827Z,1013.85
2016-08-08T06:42:33.840Z,1014.05
2016-08-08T06:43:33.849Z,1014.02
2016-08-08T06:44:33.859Z,1014.06
2016-08-08T06:45:33.873Z,1014.03
2016-08-08T06:46:33.882Z,1014.02
2016-08-08T06:47:33.896Z,1014.09
2016-08-08T06:48:33.911Z,1013.99
2016-08-08T06:49:33.923Z,1013.56
2016-08-08T06:50:33.933Z,1013.62
2016-08-08T06:51:33.947Z,1013.99
2016-08-08T06:52:33.962Z,1014.1
2016-08-08T06:53:33.977Z,1013.76
2016-08-08T06:54:33.991Z,1014.12
2016-08-08T06:55:34.005Z,1014.12
2016-08-08T06:56:34.020Z,1014.01
2016-08-08T06:57:34.031Z,1014.03
2016-08-08T06:58:34.046Z,1014.04
2016-08-08T06:59:34.061Z,1013.92
2016-08-08T07:00:34.076Z,1013.9
2016-08-08T07:01:34.105Z,1013.91
2016-08-08T07:02:34.109Z,1013.8
2016-08-08T07:03:34.124Z,1013.8
2016-08-08T07:04:34.139Z,1013.86
2016-08-08T07:05:34.256Z,1013.94
2016-08-08T07:06:34.171Z,1014.01
2016-08-08T07:07:34.189Z,1014.08
2016-08-08T07:08:34.207Z,1014.04
2016-08-08T07:09:34.223Z,1014.01
2016-08-08T07:10:34.242Z,1013.94
2016-08-08T07:11:34.259Z,1013.86
2016-08-08T07:12:34.275Z,1014.01
2016-08-08T07:13:34.294Z,1013.98
2016-08-08T07:14:34.312Z,1014.02
2016-08-08T07:15:34.329Z,1013.96
2016-08-08T07:16:34.350Z,1014.08
2016-08-08T07:17:34.368Z,1014.15
2016-08-08T07:18:34.390Z,1014.13
2016-08-08T07:19:34.408Z,1014.13
2016-08-08T07:20:35.278Z,1014.01
2016-08-08T07:21:34.452Z,1013.97
2016-08-08T07:22:34.465Z,1014.05
2016-08-08T07:23:34.485Z,1014.04
2016-08-08T07:24:34.505Z,1013.98
2016-08-08T07:25:34.577Z,1014.06
2016-08-08T07:26:34.544Z,1013.74
2016-08-08T07:27:34.566Z,1014.19
2016-08-08T07:28:34.586Z,1014.23
2016-08-08T07:29:34.613Z,1014.02
2016-08-08T07:30:34.629Z,1013.85
2016-08-08T07:31:34.650Z,1013.84
2016-08-08T07:32:36.572Z,1013.86
2016-08-08T07:33:36.263Z,1013.85
2016-08-08T07:34:34.708Z,1013.82
2016-08-08T07:35:35.760Z,1013.77
2016-08-08T07:36:35.608Z,1013.82
2016-08-08T07:37:34.768Z,1013.68
2016-08-08T07:38:34.794Z,1013.67
2016-08-08T07:39:34.807Z,1014.62
2016-08-08T07:40:34.825Z,1013.45
2016-08-08T07:41:34.844Z,1013.48
2016-08-08T07:42:35.126Z,1013.61
2016-08-08T07:43:34.881Z,1013.74
2016-08-08T07:44:35.695Z,1014.74
2016-08-08T07:45:34.916Z,1013.74
2016-08-08T07:46:34.934Z,1013.87
2016-08-08T07:47:34.953Z,1013.78
2016-08-08T07:48:34.971Z,1013.92
2016-08-08T07:49:34.989Z,1014.38
2016-08-08T07:50:35.003Z,1013.75
2016-08-08T07:51:35.022Z,1013.9
2016-08-08T07:52:35.036Z,1013.99
2016-08-08T07:53:35.055Z,1013.88
2016-08-08T07:54:35.072Z,1013.83
2016-08-08T07:55:35.089Z,1014.12
2016-08-08T07:56:35.104Z,1014.02
2016-08-08T07:57:35.120Z,1013.85
2016-08-08T07:58:35.135Z,1013.78
2016-08-08T07:59:35.151Z,1013.77
2016-08-08T08:00:35.168Z,1013.7
2016-08-08T08:01:35.185Z,1013.7
2016-08-08T08:02:35.199Z,1013.66
2016-08-08T08:03:35.214Z,1013.57
2016-08-08T08:04:35.234Z,1013.67
2016-08-08T08:05:35.348Z,1013.65
2016-08-08T08:06:35.261Z,1013.66
2016-08-08T08:07:35.275Z,1013.56
2016-08-08T08:08:35.292Z,1013.55
2016-08-08T08:09:35.305Z,1014
2016-08-08T08:10:35.320Z,1013.55
2016-08-08T08:11:35.335Z,1013.65
2016-08-08T08:12:35.349Z,1014.11
2016-08-08T08:13:35.362Z,1014.38
2016-08-08T08:14:35.377Z,1013.81
2016-08-08T08:15:35.390Z,1015.14
2016-08-08T08:16:35.405Z,1013.55
2016-08-08T08:17:35.420Z,1013.6
2016-08-08T08:18:35.434Z,1013.61
2016-08-08T08:19:35.444Z,1013.52
2016-08-08T08:20:35.459Z,1013.53
2016-08-08T08:21:35.473Z,1013.55
2016-08-08T08:22:35.487Z,1013.6
2016-08-08T08:23:35.499Z,1013.37
2016-08-08T08:24:35.514Z,1013.27
2016-08-08T08:25:35.530Z,1013.29
2016-08-08T08:26:35.538Z,1013.22
2016-08-08T08:27:35.551Z,1013.31
2016-08-08T08:28:35.568Z,1013.2
2016-08-08T08:29:35.576Z,1013.3
2016-08-08T08:30:35.591Z,1013.33
2016-08-08T08:31:35.601Z,1013.32
2016-08-08T08:32:35.618Z,1013.31
2016-08-08T08:33:35.624Z,1013.44
2016-08-08T08:34:35.638Z,1013.27
2016-08-08T08:35:35.647Z,1013.36
2016-08-08T08:36:35.663Z,1013.4
2016-08-08T08:37:35.671Z,1013.35
2016-08-08T08:38:36.934Z,1013.4
2016-08-08T08:39:35.691Z,1013.28
2016-08-08T08:40:35.702Z,1013.28
2016-08-08T08:41:35.715Z,1013.22
2016-08-08T08:42:36.076Z,1013.2
2016-08-08T08:43:35.734Z,1013.15
2016-08-08T08:44:35.745Z,1013.26
2016-08-08T08:45:35.768Z,1013.07
2016-08-08T08:46:35.768Z,1013.04
2016-08-08T08:47:35.775Z,1012.99
2016-08-08T08:48:35.787Z,1013.04
2016-08-08T08:49:35.795Z,1013.04
2016-08-08T08:50:37.164Z,1013.07
2016-08-08T08:51:37.586Z,1013.16
2016-08-08T08:52:35.825Z,1013.1
2016-08-08T08:53:35.837Z,1013.31
2016-08-08T08:54:35.844Z,1013.29
2016-08-08T08:55:36.279Z,1013.38
2016-08-08T08:56:35.863Z,1013.35
2016-08-08T08:57:35.956Z,1013.25
2016-08-08T08:58:35.884Z,1013.24
2016-08-08T08:59:35.893Z,1013.14
2016-08-08T09:00:36.831Z,1013.12
2016-08-08T09:01:35.910Z,1012.9
2016-08-08T09:02:35.919Z,1012.95
2016-08-08T09:03:35.933Z,1013.03
2016-08-08T09:04:35.939Z,1013.34
2016-08-08T09:05:35.947Z,1013.35
2016-08-08T09:06:35.957Z,1013.38
2016-08-08T09:07:35.968Z,1013.26
2016-08-08T09:08:35.976Z,1013.17
2016-08-08T09:09:35.988Z,1013.25
2016-08-08T09:10:36.000Z,1013.15
2016-08-08T09:11:36.003Z,1013.22
2016-08-08T09:12:36.015Z,1013.45
2016-08-08T09:14:36.641Z,1013.29
2016-08-08T09:16:36.050Z,1013.47
2016-08-08T09:17:36.060Z,1013.39
2016-08-08T09:18:36.069Z,1013.46
2016-08-08T09:19:36.084Z,1013.52
2016-08-08T09:20:36.089Z,1013.39
2016-08-08T09:21:36.098Z,1013.48
2016-08-08T09:22:36.107Z,1013.34
2016-08-08T09:23:36.116Z,1013.5
2016-08-08T09:24:36.126Z,1013.52
2016-08-08T09:25:36.134Z,1013.42
2016-08-08T09:26:36.143Z,1013.31
2016-08-08T09:27:36.153Z,1013.25
2016-08-08T09:28:36.163Z,1013.24
2016-08-08T09:29:36.177Z,1013.04
2016-08-08T09:30:36.184Z,1013.32
2016-08-08T09:31:36.194Z,1013.21
2016-08-08T09:32:36.202Z,1013.25
2016-08-08T09:33:36.212Z,1013.17
2016-08-08T09:34:36.219Z,1013.15
2016-08-08T09:35:36.231Z,1013.16
2016-08-08T09:36:36.238Z,1013.26
2016-08-08T09:37:36.251Z,1013.19
2016-08-08T09:38:36.258Z,1013.18
2016-08-08T09:39:36.269Z,1013.15
2016-08-08T09:40:36.278Z,1013.2
2016-08-08T09:41:36.286Z,1013.14
2016-08-08T09:42:36.298Z,1013.17
2016-08-08T09:43:36.308Z,1013.06
2016-08-08T09:44:36.314Z,1013.05
2016-08-08T09:45:36.323Z,1012.98
2016-08-08T09:46:36.333Z,1013.06
2016-08-08T09:47:36.845Z,1013.05
2016-08-08T09:48:36.355Z,1013.16
2016-08-08T09:50:37.024Z,1013.09
2016-08-08T09:51:36.380Z,1013.01
2016-08-08T09:52:36.541Z,1012.94
2016-08-08T09:53:36.401Z,1012.92
2016-08-08T09:54:36.408Z,1013.07
2016-08-08T09:55:36.419Z,1013.05
2016-08-08T09:56:50.110Z,1013.09
2016-08-08T09:57:36.436Z,1012.91
2016-08-08T09:58:37.350Z,1012.78
2016-08-08T09:59:37.310Z,1012.65
2016-08-08T10:00:36.471Z,1012.62
2016-08-08T10:01:36.476Z,1012.59
2016-08-08T10:02:36.484Z,1012.61
2016-08-08T10:03:36.503Z,1012.57
2016-08-08T10:04:36.503Z,1012.54
2016-08-08T10:05:36.664Z,1012.54
2016-08-08T10:06:36.522Z,1012.46
2016-08-08T10:07:36.534Z,1012.41
2016-08-08T10:08:37.786Z,1012.4
2016-08-08T10:09:36.549Z,1012.29
2016-08-08T10:10:36.558Z,1012.35
2016-08-08T10:11:36.567Z,1012.34
2016-08-08T10:12:37.359Z,1012.34
2016-08-08T10:14:36.593Z,1012.34
2016-08-08T10:15:36.604Z,1012.37
2016-08-08T10:16:36.612Z,1012.21
2016-08-08T10:17:36.622Z,1012.24
2016-08-08T10:18:37.921Z,1012.64
2016-08-08T10:19:36.640Z,1012.62
2016-08-08T10:20:36.647Z,1012.83
2016-08-08T10:21:37.613Z,1012.57
2016-08-08T10:22:36.661Z,1012.21
2016-08-08T10:23:36.669Z,1012.11
2016-08-08T10:24:36.680Z,1012.11
2016-08-08T10:25:36.689Z,1012.62
2016-08-08T10:26:36.696Z,1012.39
2016-08-08T10:27:37.714Z,1012.32
2016-08-08T10:29:36.722Z,1012.13
2016-08-08T10:30:36.728Z,1012.17
2016-08-08T10:31:36.741Z,1012.16
2016-08-08T10:32:36.744Z,1012.09
2016-08-08T10:33:36.750Z,1012.51
2016-08-08T10:34:36.758Z,1012.36
2016-08-08T10:35:36.767Z,1012
2016-08-08T10:36:36.778Z,1012.43
2016-08-08T10:37:36.782Z,1012.15
2016-08-08T10:38:36.791Z,1012.03
2016-08-08T10:39:36.797Z,1012.01
2016-08-08T10:40:36.805Z,1012.05
2016-08-08T10:41:36.812Z,1012
2016-08-08T10:42:36.821Z,1011.98
2016-08-08T10:44:36.836Z,1011.92
2016-08-08T10:45:36.844Z,1011.97
2016-08-08T10:46:36.851Z,1012.05
2016-08-08T10:47:36.858Z,1011.99
2016-08-08T10:48:36.865Z,1011.96
2016-08-08T10:49:36.875Z,1011.91
2016-08-08T10:50:36.884Z,1011.82
2016-08-08T10:51:36.889Z,1011.89
2016-08-08T10:52:36.899Z,1011.82
2016-08-08T10:53:36.904Z,1011.9
2016-08-08T10:54:36.913Z,1011.87
2016-08-08T10:55:36.918Z,1011.8
2016-08-08T10:56:36.925Z,1011.82
2016-08-08T10:57:36.934Z,1011.85
2016-08-08T10:59:36.946Z,1011.85
2016-08-08T11:00:36.954Z,1011.8
2016-08-08T11:01:36.961Z,1011.67
2016-08-08T11:02:36.970Z,1011.99
2016-08-08T11:03:36.977Z,1012.04
2016-08-08T11:04:36.984Z,1012.35
2016-08-08T11:05:38.945Z,1012.13
2016-08-08T11:06:36.997Z,1012.14
2016-08-08T11:07:37.004Z,1011.92
2016-08-08T11:08:37.011Z,1012.14
2016-08-08T11:09:37.017Z,1011.86
2016-08-08T11:10:37.025Z,1011.83
2016-08-08T11:11:37.033Z,1011.92
2016-08-08T11:12:37.040Z,1011.82
2016-08-08T11:13:37.047Z,1011.96
2016-08-08T11:14:37.455Z,1011.99
2016-08-08T11:15:37.068Z,1012.08
2016-08-08T11:16:37.069Z,1012.19
2016-08-08T11:17:37.078Z,1012.07
2016-08-08T11:18:37.086Z,1012.18
2016-08-08T11:19:37.092Z,1011.98
2016-08-08T11:20:37.099Z,1011.89
2016-08-08T11:21:37.107Z,1011.92
2016-08-08T11:22:37.115Z,1011.99
2016-08-08T11:23:37.124Z,1012.02
2016-08-08T11:24:37.129Z,1012.13
2016-08-08T11:25:37.138Z,1011.99
2016-08-08T11:26:37.931Z,1011.87
2016-08-08T11:27:37.154Z,1011.63
2016-08-08T11:28:38.252Z,1011.63
2016-08-08T11:29:38.387Z,1011.61
2016-08-08T11:30:37.177Z,1011.57
2016-08-08T11:31:37.186Z,1011.76
2016-08-08T11:32:37.194Z,1011.78
2016-08-08T11:33:37.202Z,1011.73
2016-08-08T11:34:37.209Z,1011.63
2016-08-08T11:35:37.218Z,1011.59
2016-08-08T11:36:38.818Z,1011.6
2016-08-08T11:37:37.527Z,1011.6
2016-08-08T11:38:38.228Z,1011.61
2016-08-08T11:39:37.249Z,1011.59
2016-08-08T11:40:37.259Z,1011.56
2016-08-08T11:41:37.264Z,1011.47
2016-08-08T11:42:37.593Z,1011.49
2016-08-08T11:43:37.279Z,1011.52
2016-08-08T11:44:37.287Z,1011.4
2016-08-08T11:45:37.298Z,1011.58
2016-08-08T11:46:37.302Z,1011.54
2016-08-08T11:47:37.312Z,1011.53
2016-08-08T11:48:37.318Z,1011.57
2016-08-08T11:49:37.325Z,1011.56
2016-08-08T11:50:37.332Z,1011.55
2016-08-08T11:51:37.341Z,1011.58
2016-08-08T11:52:37.350Z,1011.51
2016-08-08T11:53:37.362Z,1011.55
2016-08-08T11:54:37.362Z,1011.56
2016-08-08T11:55:37.370Z,1011.53
2016-08-08T11:56:37.380Z,1011.54
2016-08-08T11:57:37.384Z,1011.52
2016-08-08T11:58:37.394Z,1011.56
2016-08-08T11:59:37.399Z,1011.54
2016-08-08T12:00:37.408Z,1011.68
2016-08-08T12:01:37.414Z,1011.62
2016-08-08T12:02:37.422Z,1011.57
2016-08-08T12:03:37.430Z,1011.51
2016-08-08T12:04:37.438Z,1011.44
2016-08-08T12:05:37.442Z,1011.41
2016-08-08T12:06:37.450Z,1011.43
2016-08-08T12:07:37.458Z,1011.42
2016-08-08T12:08:37.465Z,1011.39
2016-08-08T12:09:37.475Z,1011.39
2016-08-08T12:10:37.480Z,1011.44
2016-08-08T12:11:37.488Z,1011.4
2016-08-08T12:12:37.495Z,1011.27
2016-08-08T12:13:37.502Z,1011.36
2016-08-08T12:14:37.509Z,1011.36
2016-08-08T12:15:37.516Z,1011.39
2016-08-08T12:16:37.524Z,1011.37
2016-08-08T12:17:37.531Z,1011.44
2016-08-08T12:18:37.547Z,1011.57
2016-08-08T12:19:37.546Z,1011.37
2016-08-08T12:20:37.555Z,1011.35
2016-08-08T12:21:37.561Z,1011.31
2016-08-08T12:22:37.570Z,1011.33